Scroll down
FLIGHT INFORMATION
Japan Airlines

JAL880

At Arrival Gate

YSSY
 RJTT
DATE: 2018-11-19
GATE: I61
GATE DEPARTURE: 11:40
TAKEOFF: 11:55
DATE: 2018-11-19
GATE:  -
LANDING: 21:01
GATE ARRIVAL: 21:07
FLIGHT DATA
Crew: 
Speed: 
939 kph
Altitude: 
40,006 ft
Stage Length: 
7,818.3 km
Block Time: 
9.4 hrs
Flight Time: 
9.1 hrs
Fuel Used: 
87,044 kg
Cleared Route: MATLA OLTIN SCONB NBRNB HACHI NITTA HM NONIR APISO PY NZ PIKOK NUTTI HUTEL KAPOK ASADE UNZ WINZR TOESS OMLET VASKO TOMOL UKATA CADDY SABRI FITTO BAFFY DIIVA ADDUM
TRACK DATA
50,000 ft 1,000 kts
AIRCRAFT INFO AND CUMULATIVE STATS
Aircraft Type: 
B748
Registration: 
SELCAL: 
MSN/LN: 
0 / 1
Operator: 
Total Flights: 
4
Total Block Time: 
39.6 hrs
Total Flight Time: 
38.7 hrs
Total Fuel Used: 
361,788 kg
DATALINK LOG | Newest first | Current as of: 2022-10-05 09:04:13
LABEL SEQUENCE CONTENT Dn/Up
QD071721:07 22.5▼ Dn
QC011821:01▼ Dn
GA3801ADVANCED GATE ASSIGNMENTS NOT YET AVAILABLE AT THIS AIRPORT▲ Up
GR3608RJTT 20:58▼ Dn
2U3349RJTT 200000Z 04013KT 9999 FEW030 SCT070 13/05 Q1018 NOSIG RMK 1CU030 4AC070 A3009▲ Up
2S3349RJTT▼ Dn
QB552311:55▼ Dn
QA403111:40 214.7▼ Dn
2U4303YSSY 191230Z 04006KT 9999 FEW015 BKN024 19/15 Q1018▲ Up
2S4303YSSY▼ Dn


AIRCRAFT HISTORY
FLIGHT DATE FLIGHT NO. ORIGIN DESTINATION CLEARED ROUTE BLOCK TIME FLIGHT TIME FUEL USED PILOT
2020-11-06JAL413RJTT KDFW 11 hrs10.7 hrs217,338 lbCharles Harris
2018-11-19JAL880YSSY RJTT MATLA OLTIN SCONB NBRNB HACHI NITTA HM NONIR APISO PY NZ PIKOK NUTTI HUTEL KAPOK ASADE UNZ WINZR TOESS OMLET VASKO TOMOL UKATA CADDY SABRI FITTO BAFFY DIIVA ADDUM9.4 hrs9.1 hrs191,900 lbTom Landry
2018-11-18JAL773RJFF YSSY FF603 YAMGA HKC KINKO TOZAK KAGYA TGE LUKRA KALGU AGIKA MIMOD OLSAK BIXAK CANAI SABGU PAKDO NATSS RIDLL LOEBB HOOVR GALEE FACED KIBAV APUKA MEMIG LOCKA CS SWIFT ALBUX PN NITTA MAGRA MIMMI ROKUU DALAS SCONB CORKY SADLO BOREE9 hrs8.8 hrs205,842 lbTom Landry
2018-09-13JAL9515KPAE RJFF 10.2 hrs10.1 hrs182,526 lbTom Landry